sensor_id;sensor_type;location;lat;lon;timestamp;P1;durP1;ratioP1;P2;durP2;ratioP2
19301;SDS011;9785;59.362;12.152;2022-12-18T00:00:05;8.73;;;4.80;;
19301;SDS011;9785;59.362;12.152;2022-12-18T00:02:36;5.93;;;4.20;;
19301;SDS011;9785;59.362;12.152;2022-12-18T00:05:05;5.80;;;3.80;;
19301;SDS011;9785;59.362;12.152;2022-12-18T00:07:34;5.60;;;3.40;;
19301;SDS011;9785;59.362;12.152;2022-12-18T00:10:04;8.63;;;3.10;;
19301;SDS011;9785;59.362;12.152;2022-12-18T00:12:33;3.80;;;2.93;;
19301;SDS011;9785;59.362;12.152;2022-12-18T00:15:01;3.10;;;2.80;;
19301;SDS011;9785;59.362;12.152;2022-12-18T00:17:30;2.53;;;2.30;;
19301;SDS011;9785;59.362;12.152;2022-12-18T00:20:00;3.03;;;2.60;;
19301;SDS011;9785;59.362;12.152;2022-12-18T00:22:28;2.17;;;2.00;;
19301;SDS011;9785;59.362;12.152;2022-12-18T00:24:57;2.30;;;2.10;;
19301;SDS011;9785;59.362;12.152;2022-12-18T00:27:26;2.17;;;1.97;;
19301;SDS011;9785;59.362;12.152;2022-12-18T00:29:54;1.70;;;1.60;;
19301;SDS011;9785;59.362;12.152;2022-12-18T00:32:23;2.60;;;2.17;;
19301;SDS011;9785;59.362;12.152;2022-12-18T00:34:51;2.23;;;2.10;;
19301;SDS011;9785;59.362;12.152;2022-12-18T00:37:21;2.30;;;2.10;;
19301;SDS011;9785;59.362;12.152;2022-12-18T00:39:50;2.40;;;2.20;;
19301;SDS011;9785;59.362;12.152;2022-12-18T00:42:18;1.90;;;1.80;;
19301;SDS011;9785;59.362;12.152;2022-12-18T00:45:05;1.97;;;1.70;;
19301;SDS011;9785;59.362;12.152;2022-12-18T00:47:38;1.57;;;1.47;;
19301;SDS011;9785;59.362;12.152;2022-12-18T00:50:07;1.60;;;1.50;;
19301;SDS011;9785;59.362;12.152;2022-12-18T00:52:37;1.70;;;1.60;;
19301;SDS011;9785;59.362;12.152;2022-12-18T00:55:06;1.50;;;1.40;;
19301;SDS011;9785;59.362;12.152;2022-12-18T00:57:35;2.57;;;1.60;;
19301;SDS011;9785;59.362;12.152;2022-12-18T01:00:07;1.53;;;1.43;;
19301;SDS011;9785;59.362;12.152;2022-12-18T01:02:36;2.00;;;1.83;;
19301;SDS011;9785;59.362;12.152;2022-12-18T01:05:05;2.20;;;2.00;;
19301;SDS011;9785;59.362;12.152;2022-12-18T01:07:33;3.27;;;2.10;;
19301;SDS011;9785;59.362;12.152;2022-12-18T01:10:05;2.03;;;1.93;;
19301;SDS011;9785;59.362;12.152;2022-12-18T01:12:34;2.47;;;2.03;;
19301;SDS011;9785;59.362;12.152;2022-12-18T01:15:03;3.07;;;2.37;;
19301;SDS011;9785;59.362;12.152;2022-12-18T01:17:32;2.77;;;2.30;;
19301;SDS011;9785;59.362;12.152;2022-12-18T01:20:01;4.70;;;2.70;;
19301;SDS011;9785;59.362;12.152;2022-12-18T01:22:29;5.20;;;2.43;;
19301;SDS011;9785;59.362;12.152;2022-12-18T01:24:58;2.53;;;2.23;;
19301;SDS011;9785;59.362;12.152;2022-12-18T01:27:28;2.90;;;2.57;;
19301;SDS011;9785;59.362;12.152;2022-12-18T01:29:56;4.80;;;2.70;;
19301;SDS011;9785;59.362;12.152;2022-12-18T01:32:25;5.70;;;2.53;;
19301;SDS011;9785;59.362;12.152;2022-12-18T01:34:53;4.40;;;2.17;;
19301;SDS011;9785;59.362;12.152;2022-12-18T01:37:22;3.13;;;2.10;;
19301;SDS011;9785;59.362;12.152;2022-12-18T01:39:52;4.20;;;2.03;;
19301;SDS011;9785;59.362;12.152;2022-12-18T01:42:22;5.17;;;2.10;;
19301;SDS011;9785;59.362;12.152;2022-12-18T01:44:58;1.97;;;1.80;;
19301;SDS011;9785;59.362;12.152;2022-12-18T01:47:28;3.57;;;2.17;;
19301;SDS011;9785;59.362;12.152;2022-12-18T01:49:59;5.80;;;2.13;;
19301;SDS011;9785;59.362;12.152;2022-12-18T01:52:29;2.87;;;2.30;;
19301;SDS011;9785;59.362;12.152;2022-12-18T01:54:59;2.40;;;2.20;;
19301;SDS011;9785;59.362;12.152;2022-12-18T01:57:29;1.73;;;1.60;;
19301;SDS011;9785;59.362;12.152;2022-12-18T02:00:00;1.90;;;1.80;;
19301;SDS011;9785;59.362;12.152;2022-12-18T02:02:29;5.53;;;2.10;;
19301;SDS011;9785;59.362;12.152;2022-12-18T02:04:58;2.73;;;2.10;;
19301;SDS011;9785;59.362;12.152;2022-12-18T02:07:29;5.13;;;2.00;;
19301;SDS011;9785;59.362;12.152;2022-12-18T02:10:02;2.27;;;1.87;;
19301;SDS011;9785;59.362;12.152;2022-12-18T02:12:34;1.80;;;1.70;;
19301;SDS011;9785;59.362;12.152;2022-12-18T02:15:11;2.60;;;1.77;;
19301;SDS011;9785;59.362;12.152;2022-12-18T02:17:42;3.40;;;1.80;;
19301;SDS011;9785;59.362;12.152;2022-12-18T02:20:13;5.43;;;2.30;;
19301;SDS011;9785;59.362;12.152;2022-12-18T02:22:49;3.60;;;2.23;;
19301;SDS011;9785;59.362;12.152;2022-12-18T02:25:24;2.70;;;2.37;;
19301;SDS011;9785;59.362;12.152;2022-12-18T02:27:57;3.83;;;2.23;;
19301;SDS011;9785;59.362;12.152;2022-12-18T02:30:29;5.13;;;2.60;;
19301;SDS011;9785;59.362;12.152;2022-12-18T02:32:59;6.50;;;3.10;;
19301;SDS011;9785;59.362;12.152;2022-12-18T02:35:30;10.43;;;3.67;;
19301;SDS011;9785;59.362;12.152;2022-12-18T02:37:59;3.93;;;2.80;;
19301;SDS011;9785;59.362;12.152;2022-12-18T02:40:28;5.83;;;3.27;;
19301;SDS011;9785;59.362;12.152;2022-12-18T02:43:03;7.53;;;3.17;;
19301;SDS011;9785;59.362;12.152;2022-12-18T02:45:35;12.07;;;4.00;;
19301;SDS011;9785;59.362;12.152;2022-12-18T02:48:05;10.43;;;3.77;;
19301;SDS011;9785;59.362;12.152;2022-12-18T02:50:34;13.90;;;4.33;;
19301;SDS011;9785;59.362;12.152;2022-12-18T02:53:06;14.17;;;4.33;;
19301;SDS011;9785;59.362;12.152;2022-12-18T02:55:42;10.43;;;4.27;;
19301;SDS011;9785;59.362;12.152;2022-12-18T02:58:17;15.07;;;4.57;;
19301;SDS011;9785;59.362;12.152;2022-12-18T03:00:51;17.40;;;4.20;;
19301;SDS011;9785;59.362;12.152;2022-12-18T03:03:24;14.00;;;4.27;;
19301;SDS011;9785;59.362;12.152;2022-12-18T03:05:55;11.23;;;4.20;;
19301;SDS011;9785;59.362;12.152;2022-12-18T03:08:27;11.07;;;3.70;;
19301;SDS011;9785;59.362;12.152;2022-12-18T03:10:57;15.53;;;4.30;;
19301;SDS011;9785;59.362;12.152;2022-12-18T03:13:29;10.33;;;3.83;;
19301;SDS011;9785;59.362;12.152;2022-12-18T03:15:58;7.53;;;3.80;;
19301;SDS011;9785;59.362;12.152;2022-12-18T03:18:30;9.83;;;3.80;;
19301;SDS011;9785;59.362;12.152;2022-12-18T03:20:59;9.90;;;3.33;;
19301;SDS011;9785;59.362;12.152;2022-12-18T03:23:31;16.30;;;4.03;;
19301;SDS011;9785;59.362;12.152;2022-12-18T03:26:04;12.50;;;4.00;;
19301;SDS011;9785;59.362;12.152;2022-12-18T03:28:35;10.57;;;3.80;;
19301;SDS011;9785;59.362;12.152;2022-12-18T03:31:05;7.53;;;3.50;;
19301;SDS011;9785;59.362;12.152;2022-12-18T03:33:37;6.77;;;3.30;;
19301;SDS011;9785;59.362;12.152;2022-12-18T03:36:08;13.17;;;3.17;;
19301;SDS011;9785;59.362;12.152;2022-12-18T03:38:36;12.97;;;3.27;;
19301;SDS011;9785;59.362;12.152;2022-12-18T03:41:06;8.93;;;2.70;;
19301;SDS011;9785;59.362;12.152;2022-12-18T03:43:43;8.93;;;2.50;;
19301;SDS011;9785;59.362;12.152;2022-12-18T03:46:17;9.47;;;2.60;;
19301;SDS011;9785;59.362;12.152;2022-12-18T03:48:51;8.20;;;2.47;;
19301;SDS011;9785;59.362;12.152;2022-12-18T03:51:22;8.97;;;2.53;;
19301;SDS011;9785;59.362;12.152;2022-12-18T03:53:53;9.03;;;2.50;;
19301;SDS011;9785;59.362;12.152;2022-12-18T03:56:24;13.40;;;2.40;;
19301;SDS011;9785;59.362;12.152;2022-12-18T03:58:55;6.97;;;2.00;;
19301;SDS011;9785;59.362;12.152;2022-12-18T04:01:25;3.40;;;2.20;;
19301;SDS011;9785;59.362;12.152;2022-12-18T04:03:54;4.20;;;2.17;;
19301;SDS011;9785;59.362;12.152;2022-12-18T04:06:25;5.43;;;1.63;;
19301;SDS011;9785;59.362;12.152;2022-12-18T04:08:53;5.37;;;2.00;;
19301;SDS011;9785;59.362;12.152;2022-12-18T04:11:22;3.37;;;1.60;;
19301;SDS011;9785;59.362;12.152;2022-12-18T04:13:52;6.43;;;2.10;;
19301;SDS011;9785;59.362;12.152;2022-12-18T04:16:25;7.90;;;1.77;;
19301;SDS011;9785;59.362;12.152;2022-12-18T04:18:54;7.77;;;1.80;;
19301;SDS011;9785;59.362;12.152;2022-12-18T04:21:22;5.93;;;1.90;;
19301;SDS011;9785;59.362;12.152;2022-12-18T04:23:51;4.53;;;1.87;;
19301;SDS011;9785;59.362;12.152;2022-12-18T04:26:19;4.03;;;1.20;;
19301;SDS011;9785;59.362;12.152;2022-12-18T04:28:48;8.13;;;1.70;;
19301;SDS011;9785;59.362;12.152;2022-12-18T04:31:17;5.47;;;1.30;;
19301;SDS011;9785;59.362;12.152;2022-12-18T04:33:47;4.77;;;1.10;;
19301;SDS011;9785;59.362;12.152;2022-12-18T04:36:15;2.17;;;0.90;;
19301;SDS011;9785;59.362;12.152;2022-12-18T04:38:44;2.33;;;1.10;;
19301;SDS011;9785;59.362;12.152;2022-12-18T04:41:12;1.47;;;0.80;;
19301;SDS011;9785;59.362;12.152;2022-12-18T04:43:41;0.80;;;0.80;;
19301;SDS011;9785;59.362;12.152;2022-12-18T04:46:09;0.93;;;0.80;;
19301;SDS011;9785;59.362;12.152;2022-12-18T04:48:38;1.10;;;0.83;;
19301;SDS011;9785;59.362;12.152;2022-12-18T04:51:08;1.77;;;0.80;;
19301;SDS011;9785;59.362;12.152;2022-12-18T04:53:37;2.20;;;0.97;;
19301;SDS011;9785;59.362;12.152;2022-12-18T04:56:06;1.10;;;0.73;;
19301;SDS011;9785;59.362;12.152;2022-12-18T04:58:35;3.73;;;0.93;;
19301;SDS011;9785;59.362;12.152;2022-12-18T05:01:04;2.13;;;1.00;;
19301;SDS011;9785;59.362;12.152;2022-12-18T05:03:34;1.70;;;1.17;;
19301;SDS011;9785;59.362;12.152;2022-12-18T05:06:03;1.33;;;0.90;;
19301;SDS011;9785;59.362;12.152;2022-12-18T05:08:33;3.30;;;1.03;;
19301;SDS011;9785;59.362;12.152;2022-12-18T05:11:03;2.57;;;1.03;;
19301;SDS011;9785;59.362;12.152;2022-12-18T05:13:32;3.07;;;0.93;;
19301;SDS011;9785;59.362;12.152;2022-12-18T05:16:01;2.20;;;1.13;;
19301;SDS011;9785;59.362;12.152;2022-12-18T05:18:30;2.80;;;1.00;;
19301;SDS011;9785;59.362;12.152;2022-12-18T05:20:58;1.67;;;1.10;;
19301;SDS011;9785;59.362;12.152;2022-12-18T05:23:27;3.80;;;1.10;;
19301;SDS011;9785;59.362;12.152;2022-12-18T05:25:57;6.80;;;1.50;;
19301;SDS011;9785;59.362;12.152;2022-12-18T05:28:27;2.63;;;1.30;;
19301;SDS011;9785;59.362;12.152;2022-12-18T05:30:56;6.20;;;1.80;;
19301;SDS011;9785;59.362;12.152;2022-12-18T05:33:26;4.00;;;1.33;;
19301;SDS011;9785;59.362;12.152;2022-12-18T05:35:55;8.80;;;1.73;;
19301;SDS011;9785;59.362;12.152;2022-12-18T05:38:24;7.03;;;1.60;;
19301;SDS011;9785;59.362;12.152;2022-12-18T05:40:53;4.13;;;1.33;;
19301;SDS011;9785;59.362;12.152;2022-12-18T05:43:23;6.60;;;1.40;;
19301;SDS011;9785;59.362;12.152;2022-12-18T05:45:52;8.53;;;1.67;;
19301;SDS011;9785;59.362;12.152;2022-12-18T05:48:21;4.97;;;1.60;;
19301;SDS011;9785;59.362;12.152;2022-12-18T05:50:50;7.77;;;1.73;;
19301;SDS011;9785;59.362;12.152;2022-12-18T05:53:19;5.17;;;1.33;;
19301;SDS011;9785;59.362;12.152;2022-12-18T05:55:48;7.43;;;1.73;;
19301;SDS011;9785;59.362;12.152;2022-12-18T05:58:17;10.30;;;1.90;;
19301;SDS011;9785;59.362;12.152;2022-12-18T06:00:46;7.57;;;1.67;;
19301;SDS011;9785;59.362;12.152;2022-12-18T06:03:15;7.43;;;1.57;;
19301;SDS011;9785;59.362;12.152;2022-12-18T06:05:44;3.53;;;1.50;;
19301;SDS011;9785;59.362;12.152;2022-12-18T06:08:13;7.00;;;1.57;;
19301;SDS011;9785;59.362;12.152;2022-12-18T06:10:49;6.70;;;1.63;;
19301;SDS011;9785;59.362;12.152;2022-12-18T06:13:18;6.17;;;1.93;;
19301;SDS011;9785;59.362;12.152;2022-12-18T06:15:48;7.33;;;1.70;;
19301;SDS011;9785;59.362;12.152;2022-12-18T06:18:17;5.43;;;1.50;;
19301;SDS011;9785;59.362;12.152;2022-12-18T06:20:53;13.07;;;1.90;;
19301;SDS011;9785;59.362;12.152;2022-12-18T06:23:22;8.50;;;1.47;;
19301;SDS011;9785;59.362;12.152;2022-12-18T06:25:50;10.60;;;1.70;;
19301;SDS011;9785;59.362;12.152;2022-12-18T06:28:19;11.63;;;1.57;;
19301;SDS011;9785;59.362;12.152;2022-12-18T06:30:49;6.33;;;1.40;;
19301;SDS011;9785;59.362;12.152;2022-12-18T06:33:19;13.30;;;1.70;;
19301;SDS011;9785;59.362;12.152;2022-12-18T06:35:47;4.70;;;1.17;;
19301;SDS011;9785;59.362;12.152;2022-12-18T06:38:19;15.93;;;1.60;;
19301;SDS011;9785;59.362;12.152;2022-12-18T06:40:48;15.43;;;1.67;;
19301;SDS011;9785;59.362;12.152;2022-12-18T06:43:16;12.33;;;1.27;;
19301;SDS011;9785;59.362;12.152;2022-12-18T06:45:45;15.70;;;1.50;;
19301;SDS011;9785;59.362;12.152;2022-12-18T06:48:20;16.13;;;2.27;;
19301;SDS011;9785;59.362;12.152;2022-12-18T06:50:49;7.97;;;1.83;;
19301;SDS011;9785;59.362;12.152;2022-12-18T06:53:17;6.60;;;1.60;;
19301;SDS011;9785;59.362;12.152;2022-12-18T06:55:46;6.77;;;1.10;;
19301;SDS011;9785;59.362;12.152;2022-12-18T06:58:14;6.47;;;1.03;;
19301;SDS011;9785;59.362;12.152;2022-12-18T07:00:43;12.40;;;1.30;;
19301;SDS011;9785;59.362;12.152;2022-12-18T07:03:12;13.67;;;1.50;;
19301;SDS011;9785;59.362;12.152;2022-12-18T07:05:42;11.17;;;1.70;;
19301;SDS011;9785;59.362;12.152;2022-12-18T07:08:11;15.43;;;1.47;;
19301;SDS011;9785;59.362;12.152;2022-12-18T07:10:43;6.90;;;1.23;;
19301;SDS011;9785;59.362;12.152;2022-12-18T07:13:15;9.83;;;1.33;;
19301;SDS011;9785;59.362;12.152;2022-12-18T07:15:44;8.30;;;1.40;;
19301;SDS011;9785;59.362;12.152;2022-12-18T07:18:13;7.63;;;1.30;;
19301;SDS011;9785;59.362;12.152;2022-12-18T07:20:43;8.20;;;1.30;;
19301;SDS011;9785;59.362;12.152;2022-12-18T07:23:13;5.83;;;1.53;;
19301;SDS011;9785;59.362;12.152;2022-12-18T07:25:41;5.53;;;1.10;;
19301;SDS011;9785;59.362;12.152;2022-12-18T07:28:10;5.53;;;1.23;;
19301;SDS011;9785;59.362;12.152;2022-12-18T07:30:42;8.30;;;1.40;;
19301;SDS011;9785;59.362;12.152;2022-12-18T07:33:13;13.83;;;1.20;;
19301;SDS011;9785;59.362;12.152;2022-12-18T07:35:42;11.63;;;1.27;;
19301;SDS011;9785;59.362;12.152;2022-12-18T07:38:11;9.83;;;1.23;;
19301;SDS011;9785;59.362;12.152;2022-12-18T07:40:40;9.87;;;0.90;;
19301;SDS011;9785;59.362;12.152;2022-12-18T07:43:08;9.87;;;1.23;;
19301;SDS011;9785;59.362;12.152;2022-12-18T07:45:36;16.60;;;1.33;;
19301;SDS011;9785;59.362;12.152;2022-12-18T07:48:05;7.50;;;1.30;;
19301;SDS011;9785;59.362;12.152;2022-12-18T07:50:34;5.63;;;1.20;;
19301;SDS011;9785;59.362;12.152;2022-12-18T07:53:04;9.20;;;1.30;;
19301;SDS011;9785;59.362;12.152;2022-12-18T07:55:32;11.80;;;1.40;;
19301;SDS011;9785;59.362;12.152;2022-12-18T07:58:22;4.33;;;1.10;;
19301;SDS011;9785;59.362;12.152;2022-12-18T08:00:50;7.23;;;1.00;;
19301;SDS011;9785;59.362;12.152;2022-12-18T08:03:19;8.87;;;1.50;;
19301;SDS011;9785;59.362;12.152;2022-12-18T08:05:48;11.13;;;1.70;;
19301;SDS011;9785;59.362;12.152;2022-12-18T08:08:18;5.27;;;1.10;;
19301;SDS011;9785;59.362;12.152;2022-12-18T08:10:47;10.10;;;1.83;;
19301;SDS011;9785;59.362;12.152;2022-12-18T08:13:15;5.20;;;1.20;;
19301;SDS011;9785;59.362;12.152;2022-12-18T08:15:44;9.30;;;1.37;;
19301;SDS011;9785;59.362;12.152;2022-12-18T08:18:12;3.67;;;0.87;;
19301;SDS011;9785;59.362;12.152;2022-12-18T08:20:41;7.87;;;1.20;;
19301;SDS011;9785;59.362;12.152;2022-12-18T08:23:09;13.13;;;1.50;;
19301;SDS011;9785;59.362;12.152;2022-12-18T08:25:39;13.73;;;1.50;;
19301;SDS011;9785;59.362;12.152;2022-12-18T08:28:08;9.07;;;1.17;;
19301;SDS011;9785;59.362;12.152;2022-12-18T08:30:36;12.53;;;1.37;;
19301;SDS011;9785;59.362;12.152;2022-12-18T08:33:05;5.83;;;1.30;;
19301;SDS011;9785;59.362;12.152;2022-12-18T08:35:34;15.80;;;1.50;;
19301;SDS011;9785;59.362;12.152;2022-12-18T08:38:11;7.43;;;1.37;;
19301;SDS011;9785;59.362;12.152;2022-12-18T08:40:40;8.80;;;1.60;;
19301;SDS011;9785;59.362;12.152;2022-12-18T08:43:09;8.57;;;1.23;;
19301;SDS011;9785;59.362;12.152;2022-12-18T08:45:56;10.27;;;1.27;;
19301;SDS011;9785;59.362;12.152;2022-12-18T08:48:25;6.43;;;1.40;;
19301;SDS011;9785;59.362;12.152;2022-12-18T08:50:54;5.13;;;1.20;;
19301;SDS011;9785;59.362;12.152;2022-12-18T08:53:22;3.03;;;0.73;;
19301;SDS011;9785;59.362;12.152;2022-12-18T08:55:52;9.40;;;1.50;;
19301;SDS011;9785;59.362;12.152;2022-12-18T08:58:21;10.20;;;1.40;;
19301;SDS011;9785;59.362;12.152;2022-12-18T09:00:49;16.03;;;1.67;;
19301;SDS011;9785;59.362;12.152;2022-12-18T09:03:18;12.00;;;2.10;;
19301;SDS011;9785;59.362;12.152;2022-12-18T09:05:48;7.17;;;1.30;;
19301;SDS011;9785;59.362;12.152;2022-12-18T09:08:17;6.00;;;1.40;;
19301;SDS011;9785;59.362;12.152;2022-12-18T09:10:46;13.50;;;1.80;;
19301;SDS011;9785;59.362;12.152;2022-12-18T09:13:16;7.53;;;1.23;;
19301;SDS011;9785;59.362;12.152;2022-12-18T09:15:46;10.63;;;1.33;;
19301;SDS011;9785;59.362;12.152;2022-12-18T09:18:15;6.30;;;1.17;;
19301;SDS011;9785;59.362;12.152;2022-12-18T09:20:44;5.23;;;1.27;;
19301;SDS011;9785;59.362;12.152;2022-12-18T09:23:13;9.83;;;1.30;;
19301;SDS011;9785;59.362;12.152;2022-12-18T09:25:41;8.17;;;1.30;;
19301;SDS011;9785;59.362;12.152;2022-12-18T09:28:10;7.47;;;1.30;;
19301;SDS011;9785;59.362;12.152;2022-12-18T09:30:42;11.57;;;1.63;;
19301;SDS011;9785;59.362;12.152;2022-12-18T09:33:11;9.17;;;1.30;;
19301;SDS011;9785;59.362;12.152;2022-12-18T09:35:40;10.10;;;1.20;;
19301;SDS011;9785;59.362;12.152;2022-12-18T09:38:09;11.93;;;1.43;;
19301;SDS011;9785;59.362;12.152;2022-12-18T09:40:40;5.10;;;1.03;;
19301;SDS011;9785;59.362;12.152;2022-12-18T09:43:12;12.10;;;1.67;;
19301;SDS011;9785;59.362;12.152;2022-12-18T09:45:45;14.00;;;1.50;;
19301;SDS011;9785;59.362;12.152;2022-12-18T09:48:15;7.67;;;1.30;;
19301;SDS011;9785;59.362;12.152;2022-12-18T09:50:45;8.13;;;1.37;;
19301;SDS011;9785;59.362;12.152;2022-12-18T09:53:15;7.27;;;1.57;;
19301;SDS011;9785;59.362;12.152;2022-12-18T09:55:46;14.70;;;1.33;;
19301;SDS011;9785;59.362;12.152;2022-12-18T09:58:16;4.93;;;1.53;;
19301;SDS011;9785;59.362;12.152;2022-12-18T10:00:48;5.77;;;1.47;;
19301;SDS011;9785;59.362;12.152;2022-12-18T10:03:19;9.93;;;1.33;;
19301;SDS011;9785;59.362;12.152;2022-12-18T10:05:51;6.73;;;0.97;;
19301;SDS011;9785;59.362;12.152;2022-12-18T10:08:23;6.03;;;1.17;;
19301;SDS011;9785;59.362;12.152;2022-12-18T10:10:56;9.37;;;0.90;;
19301;SDS011;9785;59.362;12.152;2022-12-18T10:13:28;11.90;;;1.93;;
19301;SDS011;9785;59.362;12.152;2022-12-18T10:16:06;10.47;;;1.27;;
19301;SDS011;9785;59.362;12.152;2022-12-18T10:18:40;8.87;;;1.00;;
19301;SDS011;9785;59.362;12.152;2022-12-18T10:21:11;8.33;;;1.43;;
19301;SDS011;9785;59.362;12.152;2022-12-18T10:23:43;14.03;;;1.67;;
19301;SDS011;9785;59.362;12.152;2022-12-18T10:26:14;4.57;;;1.30;;
19301;SDS011;9785;59.362;12.152;2022-12-18T10:28:43;5.10;;;1.00;;
19301;SDS011;9785;59.362;12.152;2022-12-18T10:31:14;8.77;;;1.00;;
19301;SDS011;9785;59.362;12.152;2022-12-18T10:33:44;5.13;;;1.00;;
19301;SDS011;9785;59.362;12.152;2022-12-18T10:36:12;4.07;;;0.90;;
19301;SDS011;9785;59.362;12.152;2022-12-18T10:38:41;8.00;;;1.30;;
19301;SDS011;9785;59.362;12.152;2022-12-18T10:41:23;8.57;;;1.17;;
19301;SDS011;9785;59.362;12.152;2022-12-18T10:44:10;6.73;;;1.40;;
19301;SDS011;9785;59.362;12.152;2022-12-18T10:46:41;6.90;;;1.10;;
19301;SDS011;9785;59.362;12.152;2022-12-18T10:49:18;9.87;;;1.47;;
19301;SDS011;9785;59.362;12.152;2022-12-18T10:51:47;6.93;;;1.17;;
19301;SDS011;9785;59.362;12.152;2022-12-18T10:54:16;9.33;;;1.60;;
19301;SDS011;9785;59.362;12.152;2022-12-18T10:56:45;4.43;;;0.77;;
19301;SDS011;9785;59.362;12.152;2022-12-18T10:59:15;10.83;;;1.47;;
19301;SDS011;9785;59.362;12.152;2022-12-18T11:01:47;6.37;;;1.27;;
19301;SDS011;9785;59.362;12.152;2022-12-18T11:04:17;9.47;;;1.17;;
19301;SDS011;9785;59.362;12.152;2022-12-18T11:06:53;8.43;;;1.10;;
19301;SDS011;9785;59.362;12.152;2022-12-18T11:09:23;5.80;;;0.90;;
19301;SDS011;9785;59.362;12.152;2022-12-18T11:11:53;5.93;;;0.70;;
19301;SDS011;9785;59.362;12.152;2022-12-18T11:14:22;4.80;;;0.93;;
19301;SDS011;9785;59.362;12.152;2022-12-18T11:16:53;9.90;;;1.50;;
19301;SDS011;9785;59.362;12.152;2022-12-18T11:19:42;7.37;;;0.90;;
19301;SDS011;9785;59.362;12.152;2022-12-18T11:22:18;7.40;;;1.00;;
19301;SDS011;9785;59.362;12.152;2022-12-18T11:24:52;9.70;;;1.43;;
19301;SDS011;9785;59.362;12.152;2022-12-18T11:27:46;7.97;;;0.93;;
19301;SDS011;9785;59.362;12.152;2022-12-18T11:30:20;8.53;;;1.10;;
19301;SDS011;9785;59.362;12.152;2022-12-18T11:32:50;4.93;;;1.00;;
19301;SDS011;9785;59.362;12.152;2022-12-18T11:35:21;7.20;;;0.90;;
19301;SDS011;9785;59.362;12.152;2022-12-18T11:37:53;6.70;;;1.20;;
19301;SDS011;9785;59.362;12.152;2022-12-18T11:40:25;10.23;;;0.90;;
19301;SDS011;9785;59.362;12.152;2022-12-18T11:43:07;6.83;;;1.10;;
19301;SDS011;9785;59.362;12.152;2022-12-18T11:45:40;7.37;;;1.40;;
19301;SDS011;9785;59.362;12.152;2022-12-18T11:48:13;7.23;;;0.90;;
19301;SDS011;9785;59.362;12.152;2022-12-18T11:50:44;3.90;;;0.63;;
19301;SDS011;9785;59.362;12.152;2022-12-18T11:53:14;6.90;;;1.60;;
19301;SDS011;9785;59.362;12.152;2022-12-18T11:55:46;6.33;;;1.30;;
19301;SDS011;9785;59.362;12.152;2022-12-18T11:58:20;9.80;;;1.43;;
19301;SDS011;9785;59.362;12.152;2022-12-18T12:00:57;4.00;;;0.70;;
19301;SDS011;9785;59.362;12.152;2022-12-18T12:03:43;6.13;;;1.30;;
19301;SDS011;9785;59.362;12.152;2022-12-18T12:06:16;6.70;;;1.20;;
19301;SDS011;9785;59.362;12.152;2022-12-18T12:08:53;9.57;;;1.00;;
19301;SDS011;9785;59.362;12.152;2022-12-18T12:11:27;7.77;;;1.00;;
19301;SDS011;9785;59.362;12.152;2022-12-18T12:14:13;8.63;;;1.60;;
19301;SDS011;9785;59.362;12.152;2022-12-18T12:16:46;10.53;;;1.00;;
19301;SDS011;9785;59.362;12.152;2022-12-18T12:19:22;10.37;;;1.50;;
19301;SDS011;9785;59.362;12.152;2022-12-18T12:21:57;12.30;;;2.57;;
19301;SDS011;9785;59.362;12.152;2022-12-18T12:24:29;8.10;;;1.00;;
19301;SDS011;9785;59.362;12.152;2022-12-18T12:27:03;4.67;;;1.10;;
19301;SDS011;9785;59.362;12.152;2022-12-18T12:29:39;7.70;;;1.27;;
19301;SDS011;9785;59.362;12.152;2022-12-18T12:32:17;10.90;;;1.67;;
19301;SDS011;9785;59.362;12.152;2022-12-18T12:34:52;10.80;;;1.43;;
19301;SDS011;9785;59.362;12.152;2022-12-18T12:37:33;6.43;;;0.97;;
19301;SDS011;9785;59.362;12.152;2022-12-18T12:40:05;6.00;;;1.07;;
19301;SDS011;9785;59.362;12.152;2022-12-18T12:42:54;9.53;;;1.07;;
19301;SDS011;9785;59.362;12.152;2022-12-18T12:45:44;5.93;;;0.90;;
19301;SDS011;9785;59.362;12.152;2022-12-18T12:48:16;5.80;;;1.00;;
19301;SDS011;9785;59.362;12.152;2022-12-18T12:50:48;3.80;;;0.70;;
19301;SDS011;9785;59.362;12.152;2022-12-18T12:53:21;7.53;;;1.10;;
19301;SDS011;9785;59.362;12.152;2022-12-18T12:55:51;8.43;;;1.00;;
19301;SDS011;9785;59.362;12.152;2022-12-18T12:58:23;7.60;;;1.20;;
19301;SDS011;9785;59.362;12.152;2022-12-18T13:01:00;7.83;;;1.20;;
19301;SDS011;9785;59.362;12.152;2022-12-18T13:03:39;3.60;;;0.90;;
19301;SDS011;9785;59.362;12.152;2022-12-18T13:06:12;7.00;;;1.13;;
19301;SDS011;9785;59.362;12.152;2022-12-18T13:08:52;7.30;;;1.40;;
19301;SDS011;9785;59.362;12.152;2022-12-18T13:11:32;5.30;;;1.07;;
19301;SDS011;9785;59.362;12.152;2022-12-18T13:14:40;6.87;;;0.90;;
19301;SDS011;9785;59.362;12.152;2022-12-18T13:17:27;5.57;;;0.90;;
19301;SDS011;9785;59.362;12.152;2022-12-18T13:20:07;5.73;;;1.00;;
19301;SDS011;9785;59.362;12.152;2022-12-18T13:22:38;11.13;;;1.37;;
19301;SDS011;9785;59.362;12.152;2022-12-18T13:27:57;12.07;;;1.37;;
19301;SDS011;9785;59.362;12.152;2022-12-18T13:33:38;6.77;;;1.10;;
19301;SDS011;9785;59.362;12.152;2022-12-18T13:36:28;6.57;;;0.87;;
19301;SDS011;9785;59.362;12.152;2022-12-18T13:45:03;10.17;;;1.23;;
19301;SDS011;9785;59.362;12.152;2022-12-18T13:47:51;8.67;;;1.20;;
19301;SDS011;9785;59.362;12.152;2022-12-18T13:50:21;8.33;;;1.30;;
19301;SDS011;9785;59.362;12.152;2022-12-18T13:52:57;6.70;;;1.40;;
19301;SDS011;9785;59.362;12.152;2022-12-18T13:55:26;9.87;;;1.13;;
19301;SDS011;9785;59.362;12.152;2022-12-18T13:58:02;10.60;;;1.07;;
19301;SDS011;9785;59.362;12.152;2022-12-18T14:00:33;5.23;;;1.00;;
19301;SDS011;9785;59.362;12.152;2022-12-18T14:03:01;8.43;;;1.00;;
19301;SDS011;9785;59.362;12.152;2022-12-18T14:05:31;5.27;;;1.20;;
19301;SDS011;9785;59.362;12.152;2022-12-18T14:08:02;9.43;;;1.27;;
19301;SDS011;9785;59.362;12.152;2022-12-18T14:10:34;8.67;;;1.00;;
19301;SDS011;9785;59.362;12.152;2022-12-18T14:13:15;9.10;;;1.07;;
19301;SDS011;9785;59.362;12.152;2022-12-18T14:15:47;8.33;;;1.30;;
19301;SDS011;9785;59.362;12.152;2022-12-18T14:18:19;4.50;;;0.87;;
19301;SDS011;9785;59.362;12.152;2022-12-18T14:20:49;5.47;;;1.00;;
19301;SDS011;9785;59.362;12.152;2022-12-18T14:23:25;6.83;;;1.20;;
19301;SDS011;9785;59.362;12.152;2022-12-18T14:25:54;9.60;;;1.50;;
19301;SDS011;9785;59.362;12.152;2022-12-18T14:28:30;9.77;;;1.47;;
19301;SDS011;9785;59.362;12.152;2022-12-18T14:31:00;9.43;;;1.00;;
19301;SDS011;9785;59.362;12.152;2022-12-18T14:33:29;7.93;;;1.07;;
19301;SDS011;9785;59.362;12.152;2022-12-18T14:35:58;5.43;;;0.93;;
19301;SDS011;9785;59.362;12.152;2022-12-18T14:38:28;10.40;;;1.40;;
19301;SDS011;9785;59.362;12.152;2022-12-18T14:40:57;4.43;;;1.20;;
19301;SDS011;9785;59.362;12.152;2022-12-18T14:43:26;9.37;;;1.20;;
19301;SDS011;9785;59.362;12.152;2022-12-18T14:45:55;7.73;;;1.43;;
19301;SDS011;9785;59.362;12.152;2022-12-18T14:48:31;11.17;;;1.43;;
19301;SDS011;9785;59.362;12.152;2022-12-18T14:51:02;8.37;;;1.13;;
19301;SDS011;9785;59.362;12.152;2022-12-18T14:53:33;12.67;;;1.50;;
19301;SDS011;9785;59.362;12.152;2022-12-18T14:56:02;10.83;;;1.27;;
19301;SDS011;9785;59.362;12.152;2022-12-18T14:58:30;10.00;;;2.20;;
19301;SDS011;9785;59.362;12.152;2022-12-18T15:00:59;10.00;;;1.57;;
19301;SDS011;9785;59.362;12.152;2022-12-18T15:03:29;11.37;;;1.30;;
19301;SDS011;9785;59.362;12.152;2022-12-18T15:06:04;15.43;;;1.60;;
19301;SDS011;9785;59.362;12.152;2022-12-18T15:08:43;6.80;;;1.30;;
19301;SDS011;9785;59.362;12.152;2022-12-18T15:11:28;10.63;;;1.50;;
19301;SDS011;9785;59.362;12.152;2022-12-18T15:13:57;11.77;;;1.20;;
19301;SDS011;9785;59.362;12.152;2022-12-18T15:16:27;9.07;;;1.23;;
19301;SDS011;9785;59.362;12.152;2022-12-18T15:18:57;9.00;;;1.13;;
19301;SDS011;9785;59.362;12.152;2022-12-18T15:21:25;9.33;;;1.47;;